Time;durP1;ratioP1;P1;durP2;ratioP2;P2;SDS_P1;SDS_P2;PMS_P1;PMS_P2;Temp;Humidity;BMP_temperature;BMP_pressure;BME280_temperature;BME280_humidity;BME280_pressure;Samples;Min_cycle;Max_cycle;Signal;HPM_P1;HPM_P2
2022/01/21 00:00:16;;;;;;;26.83;4.40;;;;;;;6.35;100.00;103233.44;5057193;28;20094;-54
2022/01/21 00:02:43;;;;;;;16.55;4.93;;;;;;;6.37;100.00;103239.50;5075516;28;20036;-51
2022/01/21 00:05:09;;;;;;;26.38;3.63;;;;;;;6.40;100.00;103241.94;5075421;28;20334;-53
2022/01/21 00:07:34;;;;;;;20.13;4.78;;;;;;;6.36;100.00;103243.13;5075727;28;20036;-54
2022/01/21 00:10:00;;;;;;;15.65;3.47;;;;;;;6.37;100.00;103242.16;5057373;28;20553;-54
2022/01/21 00:12:29;;;;;;;23.95;3.63;;;;;;;6.28;100.00;103237.50;5075843;28;20036;-54
2022/01/21 00:14:54;;;;;;;15.52;4.05;;;;;;;6.24;100.00;103236.03;5075313;28;20556;-56
2022/01/21 00:17:22;;;;;;;24.40;3.53;;;;;;;6.23;100.00;103236.97;5077475;28;20101;-54
2022/01/21 00:19:51;;;;;;;12.90;3.15;;;;;;;6.27;100.00;103246.44;5074973;28;20052;-55
2022/01/21 00:30:30;;;;;;;11.77;3.65;;;;;;;6.08;100.00;103239.75;5057211;28;20045;-52
2022/01/21 00:32:56;;;;;;;21.47;4.20;;;;;;;6.01;100.00;103246.44;5056634;28;20048;-54
2022/01/21 00:35:21;;;;;;;12.97;3.77;;;;;;;5.98;100.00;103247.47;5074739;28;20078;-54
2022/01/21 00:37:48;;;;;;;23.08;3.95;;;;;;;5.73;100.00;103242.97;5074662;28;20143;-52
2022/01/21 00:40:19;;;;;;;15.18;3.97;;;;;;;5.93;100.00;103257.56;5074609;28;20111;-56
2022/01/21 00:42:52;;;;;;;27.00;4.18;;;;;;;5.92;100.00;103258.50;5056589;28;20097;-53
2022/01/21 00:45:19;;;;;;;24.63;4.60;;;;;;;5.87;100.00;103258.81;5056609;28;20036;-54
2022/01/21 00:47:46;;;;;;;22.55;4.65;;;;;;;5.98;100.00;103249.25;5039308;28;20047;-52
2022/01/21 00:50:13;;;;;;;;;;;;;;;5.81;100.00;103255.72;5056753;28;20090;-52
2022/01/21 00:52:39;;;;;;;30.98;5.32;;;;;;;5.90;100.00;103255.13;5074076;28;19915;-51
2022/01/21 00:55:07;;;;;;;21.95;4.72;;;;;;;6.00;100.00;103258.00;5074025;28;20044;-50
2022/01/21 00:57:33;;;;;;;16.77;4.57;;;;;;;6.10;100.00;103263.53;5074531;28;20040;-54
2022/01/21 01:00:00;;;;;;;23.55;4.65;;;;;;;6.16;100.00;103256.00;5055912;28;20048;-52
2022/01/21 01:02:25;;;;;;;19.13;4.13;;;;;;;6.23;100.00;103260.88;5055880;28;20119;-54
2022/01/21 01:04:51;;;;;;;19.10;4.10;;;;;;;6.16;100.00;103263.97;5074562;28;20365;-52
2022/01/21 01:07:17;;;;;;;18.80;3.83;;;;;;;6.25;100.00;103249.19;5074275;28;20445;-53
2022/01/21 01:09:43;;;;;;;25.30;4.53;;;;;;;6.36;100.00;103252.91;5074357;28;20044;-52
2022/01/21 01:12:20;;;;;;;;;;;;;;;6.40;100.00;103249.09;5057034;28;20338;-51
2022/01/21 01:20:14;;;;;;;15.05;3.13;;;;;;;6.18;100.00;103237.31;5074263;28;20524;-54
2022/01/21 01:22:53;;;;;;;23.90;3.50;;;;;;;6.04;100.00;103227.63;5055817;28;20135;-53
2022/01/21 01:28:04;;;;;;;28.27;4.43;;;;;;;5.95;100.00;103236.19;5073716;28;20028;-54
2022/01/21 01:30:32;;;;;;;18.02;3.33;;;;;;;5.86;100.00;103230.56;5039774;28;20044;-54
2022/01/21 01:32:59;;;;;;;21.95;3.38;;;;;;;6.20;100.00;103234.50;5055491;28;20032;-52
2022/01/21 01:35:28;;;;;;;13.82;3.50;;;;;;;6.17;100.00;103228.47;5073519;28;20086;-52
2022/01/21 01:40:52;;;;;;;24.15;4.45;;;;;;;6.10;100.00;103227.19;5055912;28;20435;-53
2022/01/21 01:51:23;;;;;;;15.40;2.88;;;;;;;5.93;100.00;103232.78;5073793;28;20418;-52
2022/01/21 01:53:57;;;;;;;21.50;3.33;;;;;;;5.99;100.00;103245.63;5072890;28;20044;-54
2022/01/21 01:56:27;;;;;;;13.55;2.72;;;;;;;5.93;100.00;103244.28;5073083;28;20071;-55
2022/01/21 01:58:52;;;;;;;20.13;3.03;;;;;;;5.99;100.00;103245.63;5054777;28;20131;-52
2022/01/21 02:01:18;;;;;;;15.15;3.92;;;;;;;5.87;100.00;103248.19;5055152;28;20072;-53
2022/01/21 02:03:44;;;;;;;19.92;4.13;;;;;;;5.84;100.00;103243.09;5054705;28;20485;-53
2022/01/21 02:06:09;;;;;;;19.25;3.95;;;;;;;5.72;100.00;103233.31;5054620;28;20040;-53
2022/01/21 02:08:35;;;;;;;16.08;2.72;;;;;;;5.71;100.00;103236.91;5056104;28;20051;-54
2022/01/21 02:11:01;;;;;;;13.25;2.50;;;;;;;5.65;100.00;103242.66;5073856;28;20310;-56
2022/01/21 02:13:30;;;;;;;16.27;2.60;;;;;;;5.62;100.00;103240.19;5073241;28;20063;-53
2022/01/21 02:16:16;;;;;;;11.18;2.20;;;;;;;5.75;100.00;103235.75;5073531;28;20032;-55
2022/01/21 02:21:35;;;;;;;19.42;2.72;;;;;;;5.74;100.00;103240.22;5056529;28;20033;-53
2022/01/21 02:24:12;;;;;;;14.77;2.95;;;;;;;5.53;100.00;103231.03;5055884;28;20036;-55
2022/01/21 02:26:38;;;;;;;;;;;;;;;5.57;100.00;103236.06;5055478;28;20043;-54
2022/01/21 02:29:06;;;;;;;23.83;4.90;;;;;;;5.64;100.00;103231.16;5054628;28;19913;-54
2022/01/21 02:31:34;;;;;;;17.13;2.17;;;;;;;5.58;100.00;103237.75;5055056;28;20163;-54
2022/01/21 02:34:00;;;;;;;15.18;3.20;;;;;;;5.52;100.00;103227.53;5072805;28;20049;-55
2022/01/21 02:36:27;;;;;;;19.45;2.75;;;;;;;5.52;100.00;103235.50;5037913;28;20040;-52
2022/01/21 02:38:53;;;;;;;15.07;3.08;;;;;;;5.69;100.00;103225.53;5054912;28;20048;-53
2022/01/21 02:41:20;;;;;;;11.80;2.00;;;;;;;5.70;100.00;103224.59;5054864;28;20144;-55
2022/01/21 02:43:46;;;;;;;15.23;2.78;;;;;;;5.68;100.00;103216.75;5054266;28;20119;-54
2022/01/21 02:46:11;;;;;;;19.90;3.20;;;;;;;5.56;100.00;103234.34;5054941;28;20120;-54
2022/01/21 02:48:39;;;;;;;17.35;3.25;;;;;;;5.56;100.00;103231.69;5072457;28;20534;-53
2022/01/21 02:51:08;;;;;;;15.95;2.42;;;;;;;5.45;100.00;103231.56;5054345;28;20075;-55
2022/01/21 02:54:03;;;;;;;10.23;2.25;;;;;;;5.57;100.00;103220.13;5054808;28;20043;-54
2022/01/21 02:56:25;;;;;;;19.77;3.30;;;;;;;5.54;100.00;103233.59;5054995;28;20049;-54
2022/01/21 02:58:50;;;;;;;17.65;2.13;;;;;;;5.37;100.00;103236.53;5072965;28;20047;-51
2022/01/21 03:01:17;;;;;;;13.93;2.45;;;;;;;5.46;100.00;103230.59;5072192;28;20074;-55
2022/01/21 03:03:44;;;;;;;12.85;2.60;;;;;;;5.44;100.00;103229.84;5054682;28;20033;-55
2022/01/21 03:06:11;;;;;;;11.05;1.98;;;;;;;5.55;100.00;103229.13;5054122;28;20062;-55
2022/01/21 03:08:38;;;;;;;10.25;2.45;;;;;;;5.50;100.00;103228.59;5054314;28;20429;-55
2022/01/21 03:11:03;;;;;;;18.37;3.03;;;;;;;5.43;100.00;103215.75;5074784;28;20041;-52
2022/01/21 03:13:29;;;;;;;11.52;2.67;;;;;;;5.79;100.00;103229.28;5076335;28;20055;-53
2022/01/21 03:15:54;;;;;;;17.93;3.07;;;;;;;5.80;100.00;103230.13;5076536;28;20539;-53
2022/01/21 03:18:20;;;;;;;23.40;2.95;;;;;;;5.73;100.00;103224.38;5076159;28;20045;-50
2022/01/21 03:20:46;;;;;;;13.15;2.88;;;;;;;5.84;100.00;103231.63;5076308;28;20032;-53
2022/01/21 03:23:17;;;;;;;8.88;2.35;;;;;;;5.78;100.00;103238.22;5076144;28;20044;-51
2022/01/21 03:25:47;;;;;;;23.67;3.25;;;;;;;5.92;100.00;103239.94;5058392;28;20040;-52
2022/01/21 03:28:14;;;;;;;11.05;2.50;;;;;;;5.68;100.00;103238.00;5075703;28;20158;-53
2022/01/21 03:30:42;;;;;;;11.35;2.35;;;;;;;5.54;100.00;103232.75;5057635;28;20492;-52
2022/01/21 03:33:13;;;;;;;11.70;2.63;;;;;;;5.41;100.00;103241.50;5042361;28;20075;-55
2022/01/21 03:35:40;;;;;;;18.70;2.63;;;;;;;5.53;100.00;103237.19;5058085;28;20044;-53
2022/01/21 03:38:05;;;;;;;17.67;3.28;;;;;;;5.53;100.00;103239.84;5057753;28;20033;-52
2022/01/21 03:40:31;;;;;;;11.27;2.63;;;;;;;5.61;100.00;103244.66;5058194;28;20135;-56
2022/01/21 03:42:57;;;;;;;10.60;2.13;;;;;;;5.57;100.00;103246.69;5057733;28;20041;-55
2022/01/21 03:45:23;;;;;;;12.93;2.73;;;;;;;5.61;100.00;103252.59;5054244;28;20049;-52
2022/01/21 03:47:51;;;;;;;;;;;;;;;5.56;100.00;103255.59;5038441;28;20518;-55
2022/01/21 03:50:32;;;;;;;12.07;2.10;;;;;;;5.55;100.00;103258.34;5037927;28;19916;-55
2022/01/21 03:53:00;;;;;;;19.90;3.10;;;;;;;5.58;100.00;103255.47;5054053;28;20048;-56
2022/01/21 03:55:27;;;;;;;16.95;2.63;;;;;;;5.67;100.00;103261.97;5055508;28;20123;-55
2022/01/21 03:57:53;;;;;;;9.55;1.95;;;;;;;5.59;100.00;103262.47;5054371;28;20115;-53
2022/01/21 04:00:22;;;;;;;12.93;2.30;;;;;;;5.80;100.00;103257.56;5054677;28;20069;-54
2022/01/21 04:03:07;;;;;;;9.32;2.45;;;;;;;5.76;100.00;103249.88;5053935;28;20051;-55
2022/01/21 04:05:34;;;;;;;9.60;2.22;;;;;;;5.83;100.00;103257.34;5053599;28;20166;-52
2022/01/21 04:08:05;;;;;;;8.82;1.83;;;;;;;5.74;100.00;103255.28;5053611;28;20037;-55
2022/01/21 04:10:32;;;;;;;18.13;3.88;;;;;;;5.82;100.00;103254.78;5054598;28;20131;-54
2022/01/21 04:12:58;;;;;;;12.52;1.90;;;;;;;5.84;100.00;103269.66;5054556;28;20129;-52
2022/01/21 04:15:24;;;;;;;11.10;2.10;;;;;;;5.76;100.00;103265.81;5053402;28;20053;-53
2022/01/21 04:17:50;;;;;;;17.25;2.30;;;;;;;5.53;100.00;103258.44;5020873;28;20102;-54
2022/01/21 04:20:19;;;;;;;6.20;1.58;;;;;;;5.45;100.00;103263.41;5038114;28;20044;-54
2022/01/21 04:22:45;;;;;;;11.63;1.88;;;;;;;5.43;100.00;103247.59;5054032;28;20090;-51
2022/01/21 04:25:12;;;;;;;7.82;2.20;;;;;;;5.48;100.00;103241.97;5053038;28;20045;-55
2022/01/21 04:27:38;;;;;;;13.23;2.40;;;;;;;5.80;100.00;103248.72;5037010;28;20029;-51
2022/01/21 04:30:06;;;;;;;8.98;2.42;;;;;;;5.76;100.00;103253.38;5053611;28;20124;-44
2022/01/21 04:32:31;;;;;;;10.73;2.03;;;;;;;5.58;100.00;103245.72;5054268;28;20048;-43
2022/01/21 04:34:58;;;;;;;14.88;2.10;;;;;;;5.53;100.00;103254.94;5054479;28;20045;-44
2022/01/21 04:37:24;;;;;;;11.35;4.38;;;;;;;5.69;100.00;103249.44;5054152;28;20044;-44
2022/01/21 04:40:01;;;;;;;15.45;3.45;;;;;;;5.73;100.00;103253.59;5038977;28;20498;-47
2022/01/21 04:47:56;;;;;;;16.35;3.05;;;;;;;5.57;100.00;103246.69;5054307;28;20495;-47
2022/01/21 04:50:25;;;;;;;;;;;;;;;5.80;100.00;103246.06;5038707;28;20134;-46
2022/01/21 04:52:53;;;;;;;16.42;2.20;;;;;;;5.81;100.00;103235.34;5054622;28;19913;-45
2022/01/21 04:55:36;;;;;;;11.43;2.72;;;;;;;5.73;100.00;103235.00;5025954;28;20373;-50
2022/01/21 04:58:02;;;;;;;14.25;2.17;;;;;;;5.79;100.00;103237.25;5054622;28;20040;-48
2022/01/21 05:00:29;;;;;;;9.68;1.95;;;;;;;5.57;100.00;103241.38;5053773;28;20076;-45
2022/01/21 05:02:56;;;;;;;13.02;2.38;;;;;;;5.81;100.00;103234.47;5054244;28;20079;-44
2022/01/21 05:05:23;;;;;;;11.38;2.03;;;;;;;5.81;100.00;103240.66;5053838;28;20055;-45
2022/01/21 05:07:49;;;;;;;12.18;3.67;;;;;;;5.95;100.00;103245.03;5053808;28;20457;-49
2022/01/21 05:10:15;;;;;;;;;;;;;;;5.79;100.00;103245.22;5054020;28;20378;-44
2022/01/21 05:12:43;;;;;;;11.73;3.00;;;;;;;5.83;100.00;103233.44;5037299;28;19951;-51
2022/01/21 05:15:31;;;;;;;4.53;1.70;;;;;;;5.72;100.00;103239.47;5020606;28;20510;-47
2022/01/21 05:17:58;;;;;;;11.88;2.70;;;;;;;5.67;100.00;103238.94;5053272;28;20045;-45
2022/01/21 05:20:40;;;;;;;10.77;2.13;;;;;;;5.78;100.00;103237.34;5053681;28;20052;-46
2022/01/21 05:23:32;;;;;;;8.85;2.25;;;;;;;5.73;100.00;103246.50;5035662;28;20049;-50
2022/01/21 05:25:57;;;;;;;16.97;2.43;;;;;;;5.64;100.00;103246.25;5053785;28;20423;-44
2022/01/21 05:28:23;;;;;;;8.02;1.58;;;;;;;5.70;100.00;103235.22;5053405;28;20305;-46
2022/01/21 05:31:06;;;;;;;7.78;2.17;;;;;;;5.71;100.00;103236.91;5053719;28;20549;-50
2022/01/21 05:33:41;;;;;;;9.55;1.73;;;;;;;5.69;100.00;103230.84;5037761;28;20072;-46
2022/01/21 05:36:40;;;;;;;10.88;2.97;;;;;;;5.69;100.00;103233.50;5041741;28;20057;-45
2022/01/21 05:39:20;;;;;;;8.68;1.80;;;;;;;5.86;100.00;103237.66;5054105;28;20041;-45
2022/01/21 05:42:10;;;;;;;7.47;1.90;;;;;;;5.66;100.00;103237.25;5053221;28;20131;-52
2022/01/21 05:47:41;;;;;;;11.65;1.80;;;;;;;5.85;100.00;103236.84;5053151;28;20045;-45
2022/01/21 05:50:23;;;;;;;8.38;1.58;;;;;;;5.70;100.00;103238.72;5053604;28;20032;-45
2022/01/21 05:53:04;;;;;;;8.32;1.95;;;;;;;5.54;100.00;103236.25;5053360;28;20431;-44
2022/01/21 05:55:46;;;;;;;9.00;2.45;;;;;;;5.76;100.00;103245.41;5039008;28;20146;-43
2022/01/21 05:58:34;;;;;;;;;;;;;;;5.82;100.00;103252.97;5053951;28;20098;-45
2022/01/21 06:01:00;;;;;;;7.73;2.10;;;;;;;5.83;100.00;103265.31;5052364;28;20097;-44
2022/01/21 06:03:25;;;;;;;7.72;2.03;;;;;;;5.60;100.00;103265.03;5052737;28;20504;-43
2022/01/21 06:05:52;;;;;;;7.43;2.07;;;;;;;5.61;100.00;103263.22;5052838;28;20143;-47
2022/01/21 06:08:18;;;;;;;12.15;2.35;;;;;;;5.88;100.00;103265.84;5053037;28;20361;-44
2022/01/21 06:10:44;;;;;;;;;;;;;;;5.88;100.00;103268.50;5053040;28;20496;-42
2022/01/21 06:13:10;;;;;;;12.13;2.53;;;;;;;5.75;100.00;103264.94;5053541;28;19920;-45
2022/01/21 06:15:35;;;;;;;12.38;2.50;;;;;;;5.88;100.00;103263.19;5052365;28;20045;-46
2022/01/21 06:18:01;;;;;;;11.10;2.30;;;;;;;5.88;100.00;103268.50;5053387;28;20080;-45
2022/01/21 06:20:26;;;;;;;18.45;3.95;;;;;;;5.71;100.00;103271.44;5053279;28;20056;-48
2022/01/21 06:22:52;;;;;;;9.30;2.23;;;;;;;5.85;100.00;103276.66;5053618;28;20120;-43
2022/01/21 06:25:18;;;;;;;10.40;3.97;;;;;;;6.10;100.00;103290.97;5053489;28;20385;-45
2022/01/21 06:27:45;;;;;;;11.02;2.53;;;;;;;6.11;100.00;103287.34;5052020;28;20044;-43
2022/01/21 06:30:10;;;;;;;;;;;;;;;6.16;100.00;103293.19;5053602;28;20044;-46
2022/01/21 06:32:36;;;;;;;9.93;2.77;;;;;;;6.25;100.00;103293.53;5052111;28;19913;-44
2022/01/21 06:35:02;;;;;;;10.97;2.83;;;;;;;6.36;100.00;103280.34;5051928;28;20060;-44
2022/01/21 06:37:28;;;;;;;9.30;3.30;;;;;;;6.32;100.00;103294.81;5052212;28;20040;-48
2022/01/21 06:39:53;;;;;;;12.07;3.47;;;;;;;6.48;100.00;103289.25;5053688;28;20040;-48
2022/01/21 06:42:23;;;;;;;6.83;2.53;;;;;;;6.44;100.00;103299.25;5052048;28;20120;-44
2022/01/21 06:44:49;;;;;;;13.52;2.75;;;;;;;6.49;100.00;103316.72;5059938;28;20140;-44
2022/01/21 06:47:14;;;;;;;12.52;3.10;;;;;;;6.67;100.00;103310.06;5038675;28;20127;-44
2022/01/21 06:49:40;;;;;;;17.33;2.83;;;;;;;6.59;100.00;103317.75;5073186;28;20090;-47
2022/01/21 06:52:05;;;;;;;11.27;2.83;;;;;;;6.43;100.00;103316.16;5072786;28;20052;-48
2022/01/21 06:54:31;;;;;;;10.65;2.53;;;;;;;6.61;100.00;103310.50;5072984;28;20036;-47
2022/01/21 06:56:56;;;;;;;7.70;1.80;;;;;;;6.62;100.00;103314.88;5055069;28;20040;-47
2022/01/21 06:59:22;;;;;;;10.97;2.53;;;;;;;6.74;100.00;103313.16;5054951;28;20468;-56
2022/01/21 07:01:47;;;;;;;14.87;3.37;;;;;;;6.88;100.00;103317.47;5072903;28;20072;-47
2022/01/21 07:04:13;;;;;;;13.30;2.23;;;;;;;6.72;100.00;103320.38;5073263;28;20036;-47
2022/01/21 07:06:38;;;;;;;13.97;4.10;;;;;;;6.56;100.00;103318.81;5054889;28;20356;-46
2022/01/21 07:09:04;;;;;;;14.07;4.87;;;;;;;6.67;100.00;103323.38;5072725;28;20441;-49
2022/01/21 07:11:29;;;;;;;13.75;2.97;;;;;;;6.51;100.00;103320.09;5072777;28;20078;-46
2022/01/21 07:13:55;;;;;;;15.30;4.97;;;;;;;6.70;100.00;103317.84;5072826;28;20048;-49
2022/01/21 07:16:20;;;;;;;27.80;4.30;;;;;;;6.67;100.00;103326.03;5054881;28;20044;-49
2022/01/21 07:18:46;;;;;;;13.63;3.90;;;;;;;6.70;100.00;103339.13;5054986;28;20056;-44
2022/01/21 07:21:11;;;;;;;14.73;3.73;;;;;;;6.62;100.00;103333.47;5072629;28;20033;-46
2022/01/21 07:23:37;;;;;;;22.83;3.70;;;;;;;6.75;100.00;103344.09;5072635;28;20115;-46
2022/01/21 07:26:05;;;;;;;12.75;3.13;;;;;;;6.92;100.00;103332.28;5072566;28;20043;-45
2022/01/21 07:28:33;;;;;;;7.93;3.13;;;;;;;7.09;100.00;103324.88;5072387;28;20040;-46
2022/01/21 07:30:58;;;;;;;8.73;3.20;;;;;;;6.91;100.00;103327.06;5072544;28;20094;-49
2022/01/21 07:33:24;;;;;;;11.10;2.47;;;;;;;6.63;100.00;103339.66;5054904;28;20044;-46
2022/01/21 07:35:50;;;;;;;18.48;3.80;;;;;;;6.56;100.00;103334.75;5054956;28;20051;-46
2022/01/21 07:38:15;;;;;;;10.47;3.00;;;;;;;6.56;100.00;103340.06;5055147;28;20081;-46
2022/01/21 07:40:41;;;;;;;16.10;3.07;;;;;;;6.52;100.00;103338.59;5073013;28;20051;-54
2022/01/21 07:43:07;;;;;;;10.40;3.40;;;;;;;6.53;100.00;103315.53;5054933;28;20477;-49
2022/01/21 07:45:33;;;;;;;5.45;2.75;;;;;;;6.50;100.00;103321.91;5054265;28;20488;-43
2022/01/21 07:47:59;;;;;;;13.75;3.58;;;;;;;6.35;100.00;103318.50;5072419;28;20081;-47
2022/01/21 07:50:24;;;;;;;17.10;3.40;;;;;;;6.35;100.00;103320.31;5072089;28;20086;-46
2022/01/21 07:52:50;;;;;;;12.38;2.90;;;;;;;6.26;100.00;103321.81;5071933;28;20273;-45
2022/01/21 07:55:16;;;;;;;11.77;3.50;;;;;;;6.42;100.00;103325.09;5072543;28;20178;-45
2022/01/21 07:57:41;;;;;;;15.15;3.85;;;;;;;6.20;100.00;103323.06;5075278;28;20412;-53
2022/01/21 08:00:08;;;;;;;16.17;5.97;;;;;;;6.27;100.00;103318.19;5075889;28;20039;-44
2022/01/21 08:02:38;;;;;;;16.67;6.32;;;;;;;6.33;100.00;103315.09;5075890;28;20048;-44
2022/01/21 08:05:05;;;;;;;21.35;4.78;;;;;;;6.27;100.00;103316.38;5075990;28;20369;-43
2022/01/21 08:07:31;;;;;;;28.25;4.68;;;;;;;6.24;100.00;103308.63;5075731;28;20381;-43
2022/01/21 08:09:57;;;;;;;13.70;3.90;;;;;;;6.33;100.00;103307.13;5075695;28;20037;-45
2022/01/21 08:12:22;;;;;;;19.50;4.63;;;;;;;6.09;100.00;103304.34;5075968;28;20431;-46
2022/01/21 08:14:48;;;;;;;16.77;4.93;;;;;;;6.42;100.00;103311.78;5075832;28;20127;-46
2022/01/21 08:17:13;;;;;;;16.10;4.53;;;;;;;6.31;100.00;103314.38;5076044;28;20045;-43
2022/01/21 08:19:39;;;;;;;24.97;5.53;;;;;;;6.39;100.00;103327.97;5075406;28;20074;-46
2022/01/21 08:22:04;;;;;;;13.35;4.05;;;;;;;6.32;100.00;103332.84;5058811;28;20040;-45
2022/01/21 08:24:30;;;;;;;15.23;3.95;;;;;;;6.57;100.00;103314.34;5075769;28;20045;-46
2022/01/21 08:26:55;;;;;;;18.33;3.88;;;;;;;6.56;100.00;103310.81;5057725;28;20060;-46
2022/01/21 08:29:21;;;;;;;20.17;4.17;;;;;;;6.13;100.00;103319.97;5075418;28;20068;-45
2022/01/21 08:31:46;;;;;;;26.33;3.87;;;;;;;6.39;100.00;103321.81;5075860;28;20439;-48
2022/01/21 08:34:13;;;;;;;19.50;4.20;;;;;;;6.17;100.00;103320.63;5057439;28;20082;-48
2022/01/21 08:36:39;;;;;;;13.07;3.53;;;;;;;6.52;100.00;103327.13;5057371;28;20045;-44
2022/01/21 08:39:06;;;;;;;18.38;3.60;;;;;;;6.67;100.00;103319.88;5075214;28;20473;-45
2022/01/21 08:41:32;;;;;;;15.60;2.85;;;;;;;6.79;100.00;103326.13;5075380;28;20534;-47
2022/01/21 08:43:57;;;;;;;14.02;3.20;;;;;;;7.10;100.00;103319.47;5075725;28;20036;-43
2022/01/21 08:46:23;;;;;;;13.90;2.78;;;;;;;6.65;100.00;103308.50;5057329;28;20052;-46
2022/01/21 08:48:49;;;;;;;16.30;4.88;;;;;;;6.75;100.00;103304.22;5057547;28;20049;-46
2022/01/21 08:51:22;;;;;;;19.73;3.23;;;;;;;6.98;100.00;103309.69;5057078;28;20036;-44
2022/01/21 08:53:48;;;;;;;15.80;3.67;;;;;;;6.98;100.00;103296.38;5074853;28;20261;-44
2022/01/21 08:56:17;;;;;;;13.82;3.83;;;;;;;6.99;100.00;103295.44;5074884;28;20071;-46
2022/01/21 08:58:44;;;;;;;14.60;3.47;;;;;;;7.15;100.00;103292.50;5074557;28;20037;-46
2022/01/21 09:01:11;;;;;;;12.57;3.70;;;;;;;7.24;100.00;103290.97;5074605;28;20043;-43
2022/01/21 09:03:37;;;;;;;19.58;4.05;;;;;;;7.44;100.00;103295.69;5075054;28;20040;-46
2022/01/21 09:06:03;;;;;;;;;;;;;;;7.42;100.00;103296.78;5057515;28;20431;-44
2022/01/21 09:08:30;;;;;;;17.00;4.50;;;;;;;7.29;100.00;103291.50;5056416;28;19916;-44
2022/01/21 09:10:57;;;;;;;14.18;3.78;;;;;;;7.50;100.00;103296.22;5074471;28;20560;-46
2022/01/21 09:13:27;;;;;;;9.85;2.97;;;;;;;7.55;100.00;103297.53;5074685;28;20044;-45
2022/01/21 09:15:54;;;;;;;15.70;3.17;;;;;;;7.74;100.00;103294.38;5074297;28;20033;-45
2022/01/21 09:18:20;;;;;;;31.17;4.35;;;;;;;7.73;100.00;103302.47;5075015;28;20082;-47
2022/01/21 09:20:47;;;;;;;15.40;2.75;;;;;;;7.90;100.00;103301.16;5074696;28;20068;-45
2022/01/21 09:23:13;;;;;;;9.82;3.15;;;;;;;8.75;100.00;103310.63;5074936;28;20098;-47
2022/01/21 09:25:39;;;;;;;26.73;3.63;;;;;;;9.93;100.00;103320.72;5074032;28;20396;-44
2022/01/21 09:28:04;;;;;;;11.90;2.72;;;;;;;11.07;100.00;103315.34;5073951;28;20056;-47
2022/01/21 09:30:30;;;;;;;22.83;4.28;;;;;;;11.79;100.00;103324.97;5073940;28;20124;-43
2022/01/21 09:32:57;;;;;;;13.68;2.25;;;;;;;12.65;100.00;103321.38;5073937;28;20033;-49
2022/01/21 09:35:23;;;;;;;9.15;2.60;;;;;;;13.05;90.29;103322.88;5056415;28;20057;-51
2022/01/21 09:37:49;;;;;;;13.90;2.92;;;;;;;13.60;85.36;103321.06;5074270;28;20045;-50
2022/01/21 09:40:15;;;;;;;13.33;2.87;;;;;;;14.27;76.51;103326.94;5023329;28;20029;-49
2022/01/21 09:42:40;;;;;;;16.73;4.00;;;;;;;15.04;72.40;103318.03;5074142;28;20048;-44
2022/01/21 09:45:11;;;;;;;14.50;2.40;;;;;;;15.75;65.48;103323.00;5074108;28;20289;-42
2022/01/21 09:47:49;;;;;;;13.17;2.80;;;;;;;15.36;66.23;103321.81;5073711;28;20036;-42
2022/01/21 09:50:17;;;;;;;13.77;3.10;;;;;;;15.74;64.52;103330.25;5057703;28;20268;-43
2022/01/21 09:52:51;;;;;;;11.20;2.77;;;;;;;14.69;69.58;103342.28;5073570;28;20292;-44
2022/01/21 09:55:21;;;;;;;12.30;2.60;;;;;;;14.90;70.00;103354.53;5039532;28;20284;-47
2022/01/21 09:57:52;;;;;;;10.03;2.40;;;;;;;15.53;68.21;103351.47;5073758;28;20280;-43
2022/01/21 10:00:19;;;;;;;11.70;2.53;;;;;;;15.03;70.87;103352.22;5073535;28;20368;-42
2022/01/21 10:02:48;;;;;;;9.53;2.50;;;;;;;14.57;75.50;103360.59;5073334;28;20718;-44
2022/01/21 10:05:14;;;;;;;10.13;2.43;;;;;;;12.71;91.96;103362.91;5073289;28;20761;-48
2022/01/21 10:07:41;;;;;;;12.82;2.20;;;;;;;12.05;100.00;103358.28;5074160;28;20664;-43
2022/01/21 10:10:08;;;;;;;9.77;3.67;;;;;;;11.64;100.00;103364.78;5073309;28;20040;-45
2022/01/21 10:12:36;;;;;;;10.47;1.70;;;;;;;11.59;100.00;103367.84;5055600;28;20260;-44
2022/01/21 10:15:08;;;;;;;13.83;2.90;;;;;;;11.41;100.00;103367.72;5073621;28;20608;-44
2022/01/21 10:17:35;;;;;;;15.80;3.17;;;;;;;11.19;100.00;103365.16;5073171;28;20281;-43
2022/01/21 10:20:16;;;;;;;9.00;2.43;;;;;;;11.31;100.00;103368.56;5055149;28;20273;-45
2022/01/21 10:22:58;;;;;;;14.17;2.63;;;;;;;11.18;100.00;103375.97;5073388;28;20350;-44
2022/01/21 10:25:25;;;;;;;15.50;2.40;;;;;;;10.89;100.00;103376.75;5073324;28;20296;-44
2022/01/21 10:27:50;;;;;;;8.38;2.10;;;;;;;10.78;100.00;103384.84;5055420;28;20320;-42
2022/01/21 10:30:24;;;;;;;17.67;2.87;;;;;;;10.56;100.00;103386.72;5073882;28;20099;-45
2022/01/21 10:32:51;;;;;;;14.48;2.67;;;;;;;10.86;100.00;103382.38;5073243;28;20488;-43
2022/01/21 10:35:24;;;;;;;14.60;2.40;;;;;;;10.67;100.00;103388.47;5055428;28;20041;-45
2022/01/21 10:37:52;;;;;;;16.13;3.00;;;;;;;11.01;100.00;103391.72;5073104;28;20124;-46
2022/01/21 10:40:21;;;;;;;11.55;2.33;;;;;;;11.05;100.00;103387.78;5038823;28;20447;-46
2022/01/21 10:42:47;;;;;;;16.70;2.97;;;;;;;10.90;100.00;103387.31;5055741;28;20431;-42
2022/01/21 10:45:13;;;;;;;9.90;2.63;;;;;;;10.73;100.00;103371.91;5072317;28;20080;-42
2022/01/21 10:47:45;;;;;;;16.40;3.05;;;;;;;11.21;100.00;103365.00;5072997;28;20056;-44
2022/01/21 10:50:14;;;;;;;20.58;3.03;;;;;;;11.28;100.00;103355.41;5055823;28;20036;-43
2022/01/21 10:52:50;;;;;;;25.42;3.33;;;;;;;11.47;100.00;103345.72;5072806;28;20511;-44
2022/01/21 10:55:38;;;;;;;21.17;3.40;;;;;;;11.10;100.00;103339.16;5072868;28;20480;-46
2022/01/21 10:58:13;;;;;;;11.50;2.50;;;;;;;11.32;100.00;103346.13;5073304;28;20043;-46
2022/01/21 11:01:03;;;;;;;17.77;2.92;;;;;;;11.31;100.00;103344.44;5073335;28;20043;-44
2022/01/21 11:03:30;;;;;;;14.57;2.80;;;;;;;11.10;100.00;103332.97;5073674;28;20041;-42
2022/01/21 11:06:14;;;;;;;13.45;2.20;;;;;;;11.21;100.00;103327.50;5072527;28;20036;-42
2022/01/21 11:08:40;;;;;;;11.20;2.33;;;;;;;11.43;100.00;103320.19;5072788;28;20036;-41
2022/01/21 11:11:05;;;;;;;19.05;2.70;;;;;;;11.00;100.00;103317.72;5055087;28;20082;-40
2022/01/21 11:13:32;;;;;;;15.77;3.10;;;;;;;11.11;100.00;103319.44;5072748;28;20041;-41
2022/01/21 11:16:04;;;;;;;13.90;2.70;;;;;;;11.25;100.00;103328.06;5073144;28;20353;-43
2022/01/21 11:18:31;;;;;;;13.13;2.70;;;;;;;11.05;100.00;103328.03;5055464;28;20380;-44
2022/01/21 11:21:10;;;;;;;20.60;2.97;;;;;;;10.93;100.00;103324.63;5072548;28;20070;-42
2022/01/21 11:23:37;;;;;;;11.82;2.97;;;;;;;11.12;100.00;103328.31;5073135;28;20464;-46
2022/01/21 11:26:08;;;;;;;19.02;3.25;;;;;;;11.27;100.00;103332.28;5072963;28;20123;-45
2022/01/21 11:28:41;;;;;;;23.98;3.35;;;;;;;10.78;100.00;103339.34;5073158;28;20036;-44
2022/01/21 11:31:08;;;;;;;11.13;3.03;;;;;;;11.00;100.00;103328.44;5073562;28;20056;-43
2022/01/21 11:33:35;;;;;;;17.35;3.75;;;;;;;10.97;100.00;103326.03;5076229;28;20040;-42
2022/01/21 11:36:02;;;;;;;16.30;2.83;;;;;;;11.59;100.00;103324.97;5058220;28;20095;-42
2022/01/21 11:38:29;;;;;;;20.30;3.40;;;;;;;11.05;100.00;103326.19;5076264;28;20032;-44
2022/01/21 11:40:54;;;;;;;;;;;;;;;11.74;100.00;103322.72;5076580;28;20036;-43
2022/01/21 11:43:22;;;;;;;24.20;2.93;;;;;;;11.87;100.00;103309.00;5076256;28;19927;-44
2022/01/21 11:48:53;;;;;;;16.80;3.38;;;;;;;11.95;100.00;103311.84;5038507;28;20298;-44
2022/01/21 11:51:31;;;;;;;17.90;2.95;;;;;;;11.67;100.00;103313.56;5076937;28;20115;-44
2022/01/21 11:54:05;;;;;;;23.98;2.75;;;;;;;11.60;100.00;103295.38;5076094;28;20037;-43
2022/01/21 11:56:31;;;;;;;16.27;2.67;;;;;;;11.53;100.00;103296.91;5058667;28;20041;-44
2022/01/21 11:59:05;;;;;;;18.30;3.03;;;;;;;11.65;100.00;103294.94;5058447;28;20457;-45
2022/01/21 12:01:46;;;;;;;22.02;2.80;;;;;;;11.48;100.00;103299.16;5075875;28;20269;-44
2022/01/21 12:04:13;;;;;;;21.35;3.05;;;;;;;11.74;100.00;103290.53;5075556;28;20065;-43
2022/01/21 12:06:39;;;;;;;15.32;3.45;;;;;;;11.55;100.00;103289.59;5075844;28;20051;-46